Dahlgren, Virginia
Current Conditions -  °F | °C
As of 5:56 AM on Tuesday 21 Oct 2014 (Local Time) from KNYG Reporting Station
Broken Clouds Broken Clouds  
Wind Chill: 55°   Ceiling: 10000
Heat Index: 55°   Visibility: 10mi
Dew Point: 47°   Wind: 5mph
Humidity: 74%   Direction: 200°SSW
Pressure: 29.87"   Gusts: NA
Location:  38.33°N, 77.05°W
Report Text: KNYG 210956Z AUTO 20004KT 10SM BKN100 13/08 A2987 RMK AO2 SLP116 T01280083 $
Loading
Personal Weather Stations






























Interactive Weather Map
Tropical Storm Tracking
New forecast layout! Learn more

10-Day Weather Forecast

Advertisements
Track Severe Weather on mobile